Time;durP1;ratioP1;P1;durP2;ratioP2;P2;SDS_P1;SDS_P2;PMS_P1;PMS_P2;Temp;Humidity;BMP_temperature;BMP_pressure;BME280_temperature;BME280_humidity;BME280_pressure;Samples;Min_cycle;Max_cycle;Signal;HPM_P1;HPM_P2
2023/10/01 00:01:53;;;;;;;16.37;10.20;;;;;;;13.50;100.00;97330.34;4870934;28;101938;-72
2023/10/01 00:04:20;;;;;;;15.47;10.03;;;;;;;13.41;100.00;97323.00;4872378;28;104863;-72
2023/10/01 00:06:49;;;;;;;16.27;9.40;;;;;;;13.34;100.00;97327.69;4873428;28;105781;-72
2023/10/01 00:09:19;;;;;;;16.23;9.33;;;;;;;13.25;100.00;97329.19;4878265;28;101906;-72
2023/10/01 00:11:47;;;;;;;16.83;9.87;;;;;;;13.29;100.00;97328.44;4876086;28;103150;-76
2023/10/01 00:14:16;;;;;;;14.27;8.93;;;;;;;13.21;100.00;97336.06;4874995;28;102255;-76
2023/10/01 00:16:43;;;;;;;16.80;9.40;;;;;;;13.20;100.00;97331.78;4874858;28;105455;-76
2023/10/01 00:19:12;;;;;;;15.87;8.93;;;;;;;13.06;100.00;97333.13;4874260;28;105576;-76
2023/10/01 00:21:39;;;;;;;16.33;9.10;;;;;;;13.01;100.00;97330.38;4909902;28;102168;-76
2023/10/01 00:24:08;;;;;;;17.73;9.80;;;;;;;13.01;100.00;97333.03;4877936;28;105339;-75
2023/10/01 00:26:37;;;;;;;15.67;8.90;;;;;;;13.07;100.00;97334.75;4877195;28;105881;-75
2023/10/01 00:29:04;;;;;;;17.20;9.83;;;;;;;13.11;100.00;97334.03;4877960;28;101965;-75
2023/10/01 00:31:32;;;;;;;17.07;9.10;;;;;;;13.10;100.00;97323.59;4880376;28;105728;-75
2023/10/01 00:33:59;;;;;;;19.93;11.23;;;;;;;13.08;100.00;97331.03;4909702;28;102081;-75
2023/10/01 00:36:28;;;;;;;18.07;10.43;;;;;;;13.08;100.00;97329.16;4876662;28;105661;-75
2023/10/01 00:38:56;;;;;;;16.60;9.80;;;;;;;13.08;100.00;97331.03;4876325;28;105487;-75
2023/10/01 00:41:25;;;;;;;17.43;9.13;;;;;;;13.04;100.00;97338.72;4877675;28;101883;-76
2023/10/01 00:43:52;;;;;;;14.50;9.07;;;;;;;13.02;100.00;97334.69;4877598;28;105250;-74
2023/10/01 00:46:19;;;;;;;13.43;8.83;;;;;;;13.02;100.00;97332.03;4894137;28;103162;-74
2023/10/01 00:48:48;;;;;;;17.80;8.80;;;;;;;13.01;100.00;97333.03;4877557;28;101975;-73
2023/10/01 00:51:15;;;;;;;14.83;9.00;;;;;;;13.00;100.00;97326.09;4877587;28;105432;-74
2023/10/01 00:53:43;;;;;;;14.97;8.87;;;;;;;12.92;100.00;97329.16;4880234;28;105035;-73
2023/10/01 00:56:11;;;;;;;16.90;9.23;;;;;;;12.89;100.00;97337.63;4877328;28;105048;-73
2023/10/01 00:58:39;;;;;;;15.40;9.00;;;;;;;12.88;100.00;97336.84;4876850;28;105188;-73
2023/10/01 01:01:07;;;;;;;15.10;9.10;;;;;;;12.73;100.00;97330.41;4877191;28;102052;-74
2023/10/01 01:03:35;;;;;;;15.63;9.23;;;;;;;12.63;100.00;97336.38;4909095;28;105389;-73
2023/10/01 01:06:13;;;;;;;15.20;8.80;;;;;;;12.53;100.00;97330.06;4876765;28;105644;-73
2023/10/01 01:08:52;;;;;;;14.97;8.40;;;;;;;12.54;100.00;97332.47;4909087;28;101882;-73
2023/10/01 01:11:21;;;;;;;13.50;7.70;;;;;;;12.52;100.00;97328.44;4894825;28;102613;-74
2023/10/01 01:13:51;;;;;;;12.63;7.17;;;;;;;12.51;100.00;97334.81;4876502;28;105609;-74
2023/10/01 01:16:19;;;;;;;11.63;7.47;;;;;;;12.54;100.00;97329.81;4879575;28;102186;-74
2023/10/01 01:18:47;;;;;;;11.60;7.33;;;;;;;12.56;100.00;97332.25;4876653;28;105225;-75
2023/10/01 01:21:14;;;;;;;11.37;7.63;;;;;;;12.57;100.00;97326.66;4876546;28;101977;-75
2023/10/01 01:23:46;;;;;;;12.03;7.80;;;;;;;12.54;100.00;97329.81;4877007;28;105434;-75
2023/10/01 01:26:14;;;;;;;12.33;7.77;;;;;;;12.51;100.00;97322.28;4876304;28;105781;-75
2023/10/01 01:28:41;;;;;;;11.10;6.97;;;;;;;12.46;100.00;97316.03;4876844;28;101926;-75
2023/10/01 01:31:10;;;;;;;13.00;7.97;;;;;;;12.51;100.00;97313.47;4876930;28;105064;-72
2023/10/01 01:33:44;;;;;;;11.77;7.07;;;;;;;12.37;100.00;97314.84;4876201;28;106005;-73
2023/10/01 01:36:13;;;;;;;14.17;7.60;;;;;;;12.12;100.00;97317.00;4876918;28;101877;-73
2023/10/01 01:39:09;;;;;;;10.43;6.43;;;;;;;11.91;100.00;97314.97;4879658;28;105213;-73
2023/10/01 01:41:42;;;;;;;10.10;6.30;;;;;;;11.98;100.00;97312.97;4876793;28;102036;-72
2023/10/01 01:44:14;;;;;;;13.10;7.03;;;;;;;11.89;100.00;97325.88;4876727;28;105392;-72
2023/10/01 01:46:47;;;;;;;10.70;6.30;;;;;;;11.79;100.00;97320.34;4876127;28;105321;-72
2023/10/01 01:49:17;;;;;;;11.63;6.10;;;;;;;11.77;100.00;97324.31;4876579;28;101923;-73
2023/10/01 01:51:56;;;;;;;11.10;7.10;;;;;;;11.73;100.00;97320.47;4876666;28;105393;-73
2023/10/01 01:54:29;;;;;;;12.57;6.77;;;;;;;11.73;100.00;97320.47;4907881;28;105105;-73
2023/10/01 01:56:56;;;;;;;12.13;7.03;;;;;;;11.80;100.00;97321.97;4876668;28;101969;-72
2023/10/01 01:59:27;;;;;;;12.40;6.83;;;;;;;11.78;100.00;97320.59;4876390;28;105181;-73
2023/10/01 02:01:56;;;;;;;16.00;8.00;;;;;;;11.70;100.00;97315.59;4879077;28;105180;-73
2023/10/01 02:04:23;;;;;;;10.90;7.10;;;;;;;11.73;100.00;97320.47;4876482;28;105080;-72
2023/10/01 02:06:52;;;;;;;14.13;7.87;;;;;;;11.78;100.00;97323.25;4875939;28;105565;-72
2023/10/01 02:09:24;;;;;;;13.97;7.63;;;;;;;11.79;100.00;97322.19;4876464;28;101961;-72
2023/10/01 02:11:53;;;;;;;11.87;7.77;;;;;;;11.77;100.00;97310.97;4908216;28;105347;-72
2023/10/01 02:14:33;;;;;;;14.83;7.73;;;;;;;11.72;100.00;97310.88;4875531;28;105349;-72
2023/10/01 02:17:13;;;;;;;13.03;8.03;;;;;;;11.74;100.00;97320.25;4876424;28;101858;-73
2023/10/01 02:19:41;;;;;;;13.87;8.03;;;;;;;11.59;100.00;97319.09;4907546;28;105085;-73
2023/10/01 02:22:08;;;;;;;15.87;8.40;;;;;;;11.52;100.00;97315.72;4910942;28;105558;-73
2023/10/01 02:24:44;;;;;;;14.27;7.83;;;;;;;11.54;100.00;97314.44;4876246;28;104885;-73
2023/10/01 02:27:13;;;;;;;14.47;8.17;;;;;;;11.56;100.00;97311.56;4907370;28;105371;-73
2023/10/01 02:32:29;;;;;;;14.13;7.57;;;;;;;11.52;100.00;97305.88;4875563;28;104905;-74
2023/10/01 02:34:57;;;;;;;12.40;7.17;;;;;;;11.56;100.00;97308.91;4875336;28;103988;-74
2023/10/01 02:37:29;;;;;;;14.27;8.47;;;;;;;11.55;100.00;97313.41;4876055;28;101932;-73
2023/10/01 02:39:56;;;;;;;13.53;7.37;;;;;;;11.45;100.00;97309.72;4876245;28;105452;-73
2023/10/01 02:42:27;;;;;;;13.47;8.13;;;;;;;11.28;100.00;97311.47;4875171;28;105015;-73
2023/10/01 02:44:53;;;;;;;11.10;6.83;;;;;;;11.31;100.00;97314.47;4879282;28;101971;-73
2023/10/01 02:47:23;;;;;;;12.90;6.70;;;;;;;11.28;100.00;97312.25;4875086;28;105495;-73
2023/10/01 02:49:52;;;;;;;11.30;6.80;;;;;;;11.28;100.00;97300.81;4907563;28;101962;-74
2023/10/01 02:52:21;;;;;;;12.60;7.33;;;;;;;11.23;100.00;97301.50;4875720;28;105451;-74
2023/10/01 02:54:53;;;;;;;12.57;7.33;;;;;;;11.25;100.00;97301.25;4906873;28;105605;-74
2023/10/01 02:57:33;;;;;;;13.13;7.47;;;;;;;11.15;100.00;97298.38;4907605;28;101890;-74
2023/10/01 03:02:50;;;;;;;12.27;7.57;;;;;;;11.06;100.00;97299.78;4875144;28;105310;-73
2023/10/01 03:05:28;;;;;;;13.57;7.70;;;;;;;10.97;100.00;97306.47;4875875;28;101833;-73
2023/10/01 03:07:57;;;;;;;11.73;6.63;;;;;;;10.99;100.00;97305.19;4910262;28;105191;-73
2023/10/01 03:10:26;;;;;;;12.27;7.20;;;;;;;10.99;100.00;97301.72;4875651;28;101894;-73
2023/10/01 03:12:55;;;;;;;12.43;7.27;;;;;;;11.03;100.00;97303.72;4875556;28;105181;-73
2023/10/01 03:15:27;;;;;;;12.37;7.60;;;;;;;10.90;100.00;97303.91;4906676;28;105241;-73
2023/10/01 03:18:06;;;;;;;13.23;7.47;;;;;;;10.91;100.00;97300.19;4875535;28;101910;-74
2023/10/01 03:23:26;;;;;;;10.30;6.87;;;;;;;10.80;100.00;97295.69;4874836;28;105377;-73
2023/10/01 03:26:04;;;;;;;10.43;6.27;;;;;;;10.72;100.00;97289.88;4892693;28;101795;-74
2023/10/01 03:29:12;;;;;;;10.17;6.80;;;;;;;10.70;100.00;97286.66;4907239;28;105236;-74
2023/10/01 03:31:23;;;;;;;12.33;6.60;;;;;;;10.66;100.00;97291.63;4877851;28;105544;-73
2023/10/01 03:33:53;;;;;;;9.83;5.93;;;;;;;10.73;100.00;97297.63;4892666;28;102605;-72
2023/10/01 03:36:25;;;;;;;10.97;6.37;;;;;;;10.64;100.00;97290.22;4874765;28;106096;-74
2023/10/01 03:38:57;;;;;;;10.40;6.33;;;;;;;10.73;100.00;97299.47;4876168;28;101869;-74
2023/10/01 03:41:27;;;;;;;11.80;6.63;;;;;;;10.73;100.00;97302.13;4878535;28;105325;-74
2023/10/01 03:44:06;;;;;;;11.83;6.80;;;;;;;10.75;100.00;97300.09;4877838;28;105394;-74
2023/10/01 03:46:34;;;;;;;14.07;6.83;;;;;;;10.74;100.00;97304.56;4878518;28;101906;-74
2023/10/01 03:49:03;;;;;;;14.50;7.43;;;;;;;10.77;100.00;97298.00;4878524;28;105215;-74
2023/10/01 03:54:16;;;;;;;16.77;9.17;;;;;;;10.68;100.00;97310.03;4880950;28;101873;-74
2023/10/01 03:56:47;;;;;;;15.43;8.87;;;;;;;10.62;100.00;97301.09;4877591;28;105037;-74
2023/10/01 03:59:16;;;;;;;16.77;9.40;;;;;;;10.53;100.00;97302.44;4878296;28;101988;-74
2023/10/01 04:02:02;;;;;;;16.07;8.37;;;;;;;10.52;100.00;97297.38;4878362;28;104155;-74
2023/10/01 04:04:31;;;;;;;17.77;9.20;;;;;;;10.50;100.00;97302.91;4877582;28;105421;-74
2023/10/01 04:07:10;;;;;;;17.43;8.73;;;;;;;10.39;100.00;97300.22;4910171;28;102239;-73
2023/10/01 04:09:46;;;;;;;19.63;9.67;;;;;;;10.47;100.00;97297.25;4878074;28;105343;-74
2023/10/01 04:12:20;;;;;;;19.60;8.93;;;;;;;10.48;100.00;97297.00;4877716;28;105398;-74
2023/10/01 04:14:49;;;;;;;15.07;8.60;;;;;;;10.48;100.00;97293.53;4878131;28;101886;-74
2023/10/01 04:17:18;;;;;;;17.67;9.13;;;;;;;10.46;100.00;97300.94;4912644;28;105430;-74
2023/10/01 04:19:49;;;;;;;20.03;9.50;;;;;;;10.38;100.00;97303.91;4877351;28;101973;-74
2023/10/01 04:22:21;;;;;;;18.43;9.37;;;;;;;10.42;100.00;97305.09;4909698;28;105888;-74
2023/10/01 04:25:00;;;;;;;18.93;9.67;;;;;;;10.33;100.00;97304.59;4877268;28;105683;-74
2023/10/01 04:27:30;;;;;;;18.10;9.60;;;;;;;10.41;100.00;97298.16;4877990;28;101906;-73
2023/10/01 04:30:00;;;;;;;17.00;9.13;;;;;;;10.47;100.00;97302.56;4877679;28;105529;-73
2023/10/01 04:32:28;;;;;;;16.07;8.67;;;;;;;10.45;100.00;97305.44;4877244;28;105606;-73
2023/10/01 04:34:58;;;;;;;15.30;8.03;;;;;;;10.33;100.00;97309.09;4877849;28;101994;-72
2023/10/01 04:37:37;;;;;;;15.27;8.10;;;;;;;10.40;100.00;97309.81;4912372;28;105569;-72
2023/10/01 04:40:31;;;;;;;16.73;9.30;;;;;;;10.44;100.00;97313.66;4877647;28;101933;-72
2023/10/01 04:42:54;;;;;;;18.60;9.50;;;;;;;10.48;100.00;97312.16;4877619;28;105437;-72
2023/10/01 04:45:25;;;;;;;15.03;9.23;;;;;;;10.50;100.00;97308.25;4876939;28;106068;-76
2023/10/01 04:47:55;;;;;;;17.53;9.90;;;;;;;10.55;100.00;97310.22;4877699;28;101840;-75
2023/10/01 04:50:27;;;;;;;15.50;9.10;;;;;;;10.46;100.00;97311.59;4876392;28;105570;-74
2023/10/01 04:52:59;;;;;;;14.80;8.77;;;;;;;10.40;100.00;97310.63;4876938;28;105984;-74
2023/10/01 04:55:28;;;;;;;15.57;8.40;;;;;;;10.42;100.00;97307.75;4877561;28;101919;-74
2023/10/01 04:57:56;;;;;;;14.13;8.67;;;;;;;10.43;100.00;97312.84;4877549;28;105254;-74
2023/10/01 05:00:24;;;;;;;16.20;9.53;;;;;;;10.45;100.00;97307.28;4880158;28;105218;-74
2023/10/01 05:02:52;;;;;;;18.20;10.07;;;;;;;10.47;100.00;97306.03;4877372;28;105031;-74
2023/10/01 05:05:25;;;;;;;17.93;10.00;;;;;;;10.48;100.00;97309.50;4876658;28;105283;-74
2023/10/01 05:08:01;;;;;;;18.27;9.60;;;;;;;10.47;100.00;97314.00;4877121;28;102400;-75
2023/10/01 05:10:28;;;;;;;16.23;9.30;;;;;;;10.49;100.00;97316.44;4878011;28;105818;-74
2023/10/01 05:12:59;;;;;;;18.00;9.67;;;;;;;10.48;100.00;97314.81;4909108;28;105538;-74
2023/10/01 05:15:35;;;;;;;16.60;9.40;;;;;;;10.47;100.00;97313.22;4877821;28;101891;-74
2023/10/01 05:18:02;;;;;;;15.97;8.83;;;;;;;10.47;100.00;97321.97;4910010;28;104077;-74
2023/10/01 05:20:30;;;;;;;14.73;8.53;;;;;;;10.50;100.00;97323.38;4893934;28;102787;-75
2023/10/01 05:22:59;;;;;;;15.93;8.87;;;;;;;10.52;100.00;97321.31;4881178;28;101951;-75
2023/10/01 05:25:26;;;;;;;15.50;9.03;;;;;;;10.49;100.00;97316.44;4877253;28;105592;-79
2023/10/01 05:27:56;;;;;;;15.47;8.30;;;;;;;10.36;100.00;97320.09;4877812;28;102264;-77
2023/10/01 05:30:42;;;;;;;16.40;8.60;;;;;;;10.34;100.00;97319.50;4909541;28;105801;-76
2023/10/01 05:33:12;;;;;;;16.67;9.00;;;;;;;10.39;100.00;97332.94;4877003;28;105217;-76
2023/10/01 05:35:47;;;;;;;19.50;9.03;;;;;;;10.40;100.00;97331.06;4877572;28;101914;-75
2023/10/01 05:38:16;;;;;;;18.70;10.00;;;;;;;10.36;100.00;97328.06;4877553;28;105400;-75
2023/10/01 05:40:44;;;;;;;15.73;9.77;;;;;;;10.43;100.00;97327.97;4876129;28;105982;-75
2023/10/01 05:43:14;;;;;;;14.50;9.10;;;;;;;10.50;100.00;97334.00;4877593;28;101988;-74
2023/10/01 05:45:44;;;;;;;12.53;8.10;;;;;;;10.53;100.00;97344.22;4880329;28;104524;-74
2023/10/01 05:48:11;;;;;;;13.47;8.23;;;;;;;10.54;100.00;97340.50;4894603;28;101891;-75
2023/10/01 05:50:41;;;;;;;13.70;8.47;;;;;;;10.64;100.00;97346.88;4896666;28;105317;-74
2023/10/01 05:53:09;;;;;;;11.93;8.23;;;;;;;10.60;100.00;97344.91;4895886;28;105365;-78
2023/10/01 05:55:38;;;;;;;10.67;7.87;;;;;;;10.84;100.00;97346.63;4896549;28;101887;-78
2023/10/01 05:58:16;;;;;;;10.50;7.73;;;;;;;10.84;100.00;97352.72;4896571;28;105438;-74
2023/10/01 06:00:50;;;;;;;12.77;8.20;;;;;;;10.80;100.00;97345.44;4895715;28;105188;-73
2023/10/01 06:03:23;;;;;;;12.83;8.50;;;;;;;10.85;100.00;97342.91;4896179;28;101948;-74
2023/10/01 06:05:57;;;;;;;12.50;8.63;;;;;;;10.84;100.00;97347.41;4913740;28;102749;-74
2023/10/01 06:08:25;;;;;;;12.00;7.73;;;;;;;10.95;100.00;97353.81;4915013;28;105608;-75
2023/10/01 06:11:04;;;;;;;13.07;9.40;;;;;;;11.02;100.00;97349.19;4912207;28;105654;-75
2023/10/01 06:13:34;;;;;;;14.30;9.33;;;;;;;11.19;100.00;97350.13;4895303;28;105837;-76
2023/10/01 06:16:11;;;;;;;13.60;8.83;;;;;;;11.38;100.00;97343.63;4912055;28;101920;-76
2023/10/01 06:18:41;;;;;;;15.40;9.77;;;;;;;11.52;100.00;97334.38;4896220;28;105273;-76
2023/10/01 06:21:10;;;;;;;15.17;9.37;;;;;;;11.66;100.00;97341.13;4910996;28;105599;-76
2023/10/01 06:23:49;;;;;;;14.10;8.97;;;;;;;11.74;100.00;97333.56;4895909;28;102028;-76
2023/10/01 06:26:18;;;;;;;13.47;8.67;;;;;;;11.84;100.00;97335.63;4895985;28;105213;-76
2023/10/01 06:28:45;;;;;;;15.00;8.93;;;;;;;11.94;100.00;97328.63;4894912;28;105670;-76
2023/10/01 06:31:12;;;;;;;12.10;8.17;;;;;;;12.00;100.00;97337.56;4899018;28;101765;-76
2023/10/01 06:33:39;;;;;;;12.80;8.53;;;;;;;12.13;100.00;97334.63;4911098;28;105379;-75
2023/10/01 06:36:21;;;;;;;10.40;7.07;;;;;;;12.12;100.00;97336.50;4895694;28;102030;-75
2023/10/01 06:38:53;;;;;;;9.57;7.10;;;;;;;12.25;100.00;97336.19;4911888;28;104877;-76
2023/10/01 06:41:25;;;;;;;9.97;6.50;;;;;;;12.32;100.00;97339.53;4911476;28;101684;-76
2023/10/01 06:44:01;;;;;;;13.37;7.73;;;;;;;12.44;100.00;97339.50;4895759;28;101856;-76
2023/10/01 06:46:28;;;;;;;9.53;6.63;;;;;;;12.51;100.00;97340.16;4895796;28;103839;-76
2023/10/01 06:48:58;;;;;;;9.53;6.83;;;;;;;12.45;100.00;97338.44;4894807;28;105713;-76
2023/10/01 06:51:26;;;;;;;9.87;6.63;;;;;;;12.59;100.00;97332.56;4898800;28;101943;-76
2023/10/01 06:53:59;;;;;;;9.13;6.93;;;;;;;12.60;100.00;97328.84;4894806;28;105955;-76
2023/10/01 06:56:29;;;;;;;15.40;8.77;;;;;;;12.76;100.00;97333.41;4911706;28;101904;-76
2023/10/01 06:59:12;;;;;;;9.67;7.83;;;;;;;12.92;100.00;97347.84;4895695;28;105424;-76
2023/10/01 07:01:46;;;;;;;10.17;7.63;;;;;;;13.10;100.00;97344.97;4895055;28;105106;-76
2023/10/01 07:04:15;;;;;;;12.30;8.20;;;;;;;13.29;100.00;97344.47;4895319;28;102029;-76
2023/10/01 07:06:44;;;;;;;12.67;9.00;;;;;;;13.44;100.00;97347.38;4911230;28;105134;-76
2023/10/01 07:09:27;;;;;;;13.73;9.07;;;;;;;13.54;100.00;97336.84;4894778;28;105425;-76
2023/10/01 07:11:56;;;;;;;13.43;9.47;;;;;;;13.57;100.00;97341.66;4895264;28;101892;-76
2023/10/01 07:14:38;;;;;;;14.87;9.90;;;;;;;13.42;100.00;97354.00;4896950;28;105225;-76
2023/10/01 07:17:08;;;;;;;14.87;10.17;;;;;;;13.57;100.00;97355.03;4911102;28;101889;-76
2023/10/01 07:19:35;;;;;;;17.00;10.70;;;;;;;13.70;100.00;97356.56;4893533;28;105243;-76
2023/10/01 07:22:06;;;;;;;18.23;10.53;;;;;;;13.76;100.00;97358.25;4909734;28;103764;-76
2023/10/01 07:24:35;;;;;;;17.93;10.70;;;;;;;13.95;100.00;97359.59;4910123;28;101882;-76
2023/10/01 07:27:05;;;;;;;18.30;10.70;;;;;;;14.27;100.00;97360.53;4894237;28;105937;-76
2023/10/01 07:29:34;;;;;;;13.13;9.33;;;;;;;14.49;100.00;97358.66;4893635;28;105826;-76
2023/10/01 07:32:04;;;;;;;12.23;8.73;;;;;;;14.66;100.00;97356.72;4910711;28;102332;-75
2023/10/01 07:34:40;;;;;;;11.50;7.17;;;;;;;14.75;100.00;97352.50;4911134;28;105865;-75
2023/10/01 07:37:07;;;;;;;10.63;7.27;;;;;;;14.72;100.00;97353.81;4913690;28;105207;-74
2023/10/01 07:39:37;;;;;;;11.10;7.13;;;;;;;14.93;100.00;97355.63;4911153;28;105425;-74
2023/10/01 07:42:05;;;;;;;10.17;6.60;;;;;;;15.02;100.00;97356.78;4894403;28;105519;-74
2023/10/01 07:44:35;;;;;;;8.63;6.40;;;;;;;15.13;100.00;97355.00;4911027;28;102085;-74
2023/10/01 07:47:03;;;;;;;9.00;6.57;;;;;;;15.21;100.00;97349.97;4895119;28;105581;-74
2023/10/01 07:49:46;;;;;;;9.03;6.80;;;;;;;15.24;100.00;97352.16;4894434;28;105879;-73
2023/10/01 07:52:17;;;;;;;13.70;7.70;;;;;;;15.45;100.00;97350.44;4894857;28;101874;-74
2023/10/01 07:54:47;;;;;;;10.07;6.77;;;;;;;15.73;100.00;97352.78;4910796;28;105709;-73
2023/10/01 07:57:16;;;;;;;10.83;7.40;;;;;;;16.00;100.00;97350.78;4910353;28;105093;-73
2023/10/01 07:59:46;;;;;;;14.83;8.87;;;;;;;16.18;100.00;97343.09;4914184;28;101966;-74
2023/10/01 08:05:00;;;;;;;18.23;9.53;;;;;;;16.71;100.00;97350.81;4894852;28;101826;-73
2023/10/01 08:07:30;;;;;;;15.37;8.67;;;;;;;17.09;100.00;97342.28;4894714;28;105763;-73
2023/10/01 08:10:04;;;;;;;15.50;9.40;;;;;;;17.07;100.00;97343.63;4894184;28;105637;-73
2023/10/01 08:13:04;;;;;;;15.60;8.87;;;;;;;17.09;100.00;97341.44;4912202;28;101765;-73
2023/10/01 08:21:00;;;;;;;15.50;9.37;;;;;;;17.32;100.00;97348.97;5031234;28;101520;-73
2023/10/01 08:23:27;;;;;;;16.70;9.30;;;;;;;17.55;100.00;97354.66;5025508;28;105513;-73
2023/10/01 08:25:55;;;;;;;16.70;9.17;;;;;;;17.62;100.00;97354.38;5026367;28;101823;-73
2023/10/01 08:28:43;;;;;;;16.03;8.93;;;;;;;17.68;100.00;97355.97;5026215;28;105313;-73
2023/10/01 08:34:22;;;;;;;14.30;8.63;;;;;;;17.66;100.00;97353.56;5025929;28;102048;-73
2023/10/01 08:36:54;;;;;;;15.23;8.97;;;;;;;18.07;100.00;97360.47;5026257;28;104915;-73
2023/10/01 08:39:33;;;;;;;15.17;8.93;;;;;;;18.36;100.00;97348.00;5025510;28;105135;-73
2023/10/01 08:42:08;;;;;;;15.33;8.67;;;;;;;18.61;100.00;97347.88;5031027;27;101715;-73
2023/10/01 08:44:47;;;;;;;15.50;8.73;;;;;;;18.97;100.00;97343.09;5026706;27;103082;-73
2023/10/01 08:47:27;;;;;;;14.67;9.00;;;;;;;19.37;100.00;97345.50;5027412;28;101760;-73
2023/10/01 08:49:55;;;;;;;17.70;9.03;;;;;;;19.41;100.00;97347.34;5025965;28;104861;-73
2023/10/01 08:52:30;;;;;;;14.47;8.67;;;;;;;19.47;100.00;97340.84;5025528;28;105219;-73
2023/10/01 08:54:57;;;;;;;13.83;8.63;;;;;;;19.66;100.00;97343.59;5025924;28;101805;-73
2023/10/01 08:57:37;;;;;;;16.40;8.87;;;;;;;19.41;100.00;97344.63;5025605;28;104983;-73
2023/10/01 09:00:15;;;;;;;14.07;8.60;;;;;;;19.63;100.00;97347.69;5024773;28;105656;-73
2023/10/01 09:02:43;;;;;;;13.10;8.40;;;;;;;19.49;100.00;97349.44;5025551;28;101894;-73
2023/10/01 09:05:12;;;;;;;14.53;8.60;;;;;;;19.43;100.00;97355.16;5028133;28;104402;-73
2023/10/01 09:07:47;;;;;;;16.17;9.30;;;;;;;19.22;100.00;97356.41;5025590;28;102066;-73
2023/10/01 09:10:17;;;;;;;13.63;8.93;;;;;;;19.60;100.00;97358.25;5026714;27;102712;-73
2023/10/01 09:12:46;;;;;;;18.17;9.10;;;;;;;19.34;100.00;97359.56;5024962;28;106640;-73
2023/10/01 09:15:27;;;;;;;14.97;8.70;;;;;;;20.01;100.00;97354.06;5025388;28;102059;-73
2023/10/01 09:17:58;;;;;;;14.53;8.90;;;;;;;20.24;100.00;97354.09;5027087;27;102945;-73
2023/10/01 09:21:03;;;;;;;15.37;9.30;;;;;;;20.65;100.00;97338.97;5024334;28;105080;-73
2023/10/01 09:23:54;;;;;;;15.13;9.37;;;;;;;20.61;100.00;97342.56;5024578;28;102094;-73
2023/10/01 09:26:39;;;;;;;16.13;9.83;;;;;;;20.37;100.00;97342.59;5024608;28;105735;-73
2023/10/01 09:29:13;;;;;;;15.87;9.57;;;;;;;20.20;100.00;97342.25;5027238;28;103847;-73
2023/10/01 09:31:53;;;;;;;15.33;9.10;;;;;;;20.60;100.00;97341.75;5014976;28;105547;-73
2023/10/01 09:34:31;;;;;;;15.30;9.27;;;;;;;20.29;100.00;97350.53;5010634;28;105295;-73
2023/10/01 09:37:01;;;;;;;15.37;8.97;;;;;;;20.75;100.00;97343.44;5011132;28;101887;-73
2023/10/01 09:39:41;;;;;;;15.47;8.93;;;;;;;21.13;100.00;97336.94;5012247;28;102736;-73
2023/10/01 09:42:25;;;;;;;16.80;9.50;;;;;;;21.22;100.00;97337.91;5010447;28;105339;-73
2023/10/01 09:44:53;;;;;;;16.13;9.20;;;;;;;21.41;100.00;97335.97;5012438;28;102259;-73
2023/10/01 09:47:24;;;;;;;14.70;8.77;;;;;;;21.40;100.00;97339.75;5010988;28;105280;-73
2023/10/01 09:49:53;;;;;;;16.93;9.60;;;;;;;20.63;100.00;97334.94;5011070;28;105094;-73
2023/10/01 09:52:31;;;;;;;12.87;8.30;;;;;;;21.54;100.00;97340.63;5016382;28;101822;-74
2023/10/01 09:55:05;;;;;;;14.20;8.63;;;;;;;21.09;100.00;97344.06;5010957;28;105801;-74
2023/10/01 09:57:34;;;;;;;16.50;8.70;;;;;;;21.35;100.00;97334.44;5011517;28;102016;-74
2023/10/01 10:00:17;;;;;;;14.63;8.20;;;;;;;21.80;100.00;97339.09;5011319;28;105408;-74
2023/10/01 10:02:51;;;;;;;15.00;8.87;;;;;;;22.21;100.00;97337.22;5010981;28;105173;-74
2023/10/01 10:05:28;;;;;;;15.17;8.70;;;;;;;22.61;100.00;97329.09;5011537;28;102073;-74
2023/10/01 10:07:56;;;;;;;13.93;8.40;;;;;;;22.91;100.00;97330.34;5011314;28;105010;-73
2023/10/01 10:10:25;;;;;;;13.17;8.57;;;;;;;22.97;100.00;97321.78;4993502;28;105337;-74
2023/10/01 10:12:56;;;;;;;13.93;8.47;;;;;;;23.12;100.00;97328.75;5010285;28;101982;-77
2023/10/01 10:16:00;;;;;;;13.73;7.93;;;;;;;23.14;100.00;97318.38;5013170;28;105469;-78
2023/10/01 10:18:32;;;;;;;14.33;8.43;;;;;;;23.38;100.00;97322.44;5010352;28;101874;-78
2023/10/01 10:21:03;;;;;;;14.00;8.40;;;;;;;23.43;100.00;97324.25;5026954;28;105029;-78
2023/10/01 10:23:30;;;;;;;15.83;8.20;;;;;;;23.52;100.00;97323.19;5009369;28;105284;-78
2023/10/01 10:26:38;;;;;;;14.47;8.53;;;;;;;23.83;100.00;97328.63;5009724;28;102418;-78
2023/10/01 10:29:10;;;;;;;13.53;8.40;;;;;;;23.77;100.00;97321.72;5009933;28;105457;-78
2023/10/01 10:31:37;;;;;;;12.80;8.00;;;;;;;23.83;100.00;97324.00;5009191;28;105289;-78
2023/10/01 10:34:21;;;;;;;14.57;8.97;;;;;;;23.71;100.00;97318.34;5026573;28;101907;-78
2023/10/01 10:36:53;;;;;;;15.13;8.60;;;;;;;23.74;100.00;97320.44;5009999;28;105435;-78
2023/10/01 10:40:04;;;;;;;12.83;7.87;;;;;;;24.25;100.00;97326.13;5012204;28;102307;-78
2023/10/01 10:42:33;;;;;;;13.00;8.43;;;;;;;24.41;100.00;97318.34;5008572;28;105733;-78
2023/10/01 10:45:24;;;;;;;14.57;8.90;;;;;;;24.28;100.00;97316.53;5009327;28;105166;-78
2023/10/01 10:48:01;;;;;;;15.17;9.20;;;;;;;24.11;100.00;97313.75;5009715;28;102006;-78
2023/10/01 10:50:48;;;;;;;13.17;8.27;;;;;;;24.10;100.00;97321.13;5009984;28;106032;-78
2023/10/01 10:53:17;;;;;;;15.13;8.50;;;;;;;23.30;100.00;97309.63;5009319;28;104327;-77
2023/10/01 10:55:54;;;;;;;15.57;8.83;;;;;;;23.60;100.00;97314.28;5009666;28;101993;-77
2023/10/01 10:58:24;;;;;;;12.80;8.20;;;;;;;23.44;100.00;97310.34;5009724;28;105680;-78
2023/10/01 11:00:52;;;;;;;13.93;8.47;;;;;;;22.31;100.00;97312.63;5014036;28;102820;-78
2023/10/01 11:03:40;;;;;;;15.07;8.97;;;;;;;22.78;100.00;97312.19;5009381;28;105272;-77
2023/10/01 11:06:16;;;;;;;15.80;8.80;;;;;;;22.92;100.00;97307.53;5008922;28;105532;-78
2023/10/01 11:08:50;;;;;;;16.40;8.60;;;;;;;22.48;100.00;97302.81;5010866;28;102181;-78
2023/10/01 11:11:22;;;;;;;13.63;8.17;;;;;;;22.70;100.00;97304.78;5009243;28;105575;-78
2023/10/01 11:13:59;;;;;;;16.67;9.07;;;;;;;22.63;100.00;97305.22;5009040;28;106012;-78
2023/10/01 11:16:36;;;;;;;15.07;9.17;;;;;;;22.93;100.00;97303.69;5009475;28;101826;-78
2023/10/01 11:19:14;;;;;;;13.50;8.30;;;;;;;23.02;100.00;97305.38;5009174;28;105387;-78
2023/10/01 11:21:58;;;;;;;15.00;8.73;;;;;;;22.63;100.00;97293.53;5008709;28;105248;-78
2023/10/01 11:24:29;;;;;;;15.20;9.10;;;;;;;23.29;100.00;97299.06;5013007;28;102046;-78
2023/10/01 11:27:11;;;;;;;14.63;8.80;;;;;;;23.67;100.00;97286.69;5008788;28;105681;-78
2023/10/01 11:29:40;;;;;;;13.73;8.13;;;;;;;24.25;100.00;97287.28;5009419;28;102004;-78
2023/10/01 11:32:07;;;;;;;13.30;8.50;;;;;;;23.84;100.00;97286.75;5009298;28;105624;-78
2023/10/01 11:34:43;;;;;;;12.83;8.60;;;;;;;23.23;100.00;97286.72;5008642;28;105382;-79
2023/10/01 11:37:16;;;;;;;15.07;8.90;;;;;;;23.13;100.00;97276.09;5010475;28;101773;-77
2023/10/01 11:39:49;;;;;;;14.65;8.85;;;;;;;23.44;100.00;97276.97;5009206;28;105768;-76
2023/10/01 11:42:26;;;;;;;14.47;9.00;;;;;;;23.64;100.00;97279.16;5008654;28;105478;-77
2023/10/01 11:44:55;;;;;;;14.43;8.13;;;;;;;23.66;100.00;97276.94;5009231;28;101832;-77
2023/10/01 11:47:33;;;;;;;13.57;8.53;;;;;;;23.76;100.00;97277.44;5011775;28;104359;-77
2023/10/01 11:50:07;;;;;;;14.80;8.80;;;;;;;23.70;100.00;97261.63;5009015;28;101899;-77
2023/10/01 11:52:35;;;;;;;14.47;8.33;;;;;;;24.56;100.00;97261.59;5008937;28;105396;-77
2023/10/01 11:55:18;;;;;;;15.60;9.30;;;;;;;25.06;100.00;97257.31;5009226;28;103121;-77
2023/10/01 11:57:52;;;;;;;14.80;8.47;;;;;;;25.35;100.00;97248.50;5008915;28;101883;-76